sensor_id;sensor_type;location;lat;lon;timestamp;P1;durP1;ratioP1;P2;durP2;ratioP2
67685;SDS011;54469;52.090;4.312;2022-12-29T00:00:02;2.6;;;1.5;;
67685;SDS011;54469;52.090;4.312;2022-12-29T00:05:03;2.6;;;1.5;;
67685;SDS011;54469;52.090;4.312;2022-12-29T00:10:03;2.6;;;1.5;;
67685;SDS011;54469;52.090;4.312;2022-12-29T00:15:03;2.6;;;1.5;;
67685;SDS011;54469;52.090;4.312;2022-12-29T00:20:03;2.6;;;1.5;;
67685;SDS011;54469;52.090;4.312;2022-12-29T00:25:03;2.6;;;1.5;;
67685;SDS011;54469;52.090;4.312;2022-12-29T00:30:04;2.6;;;1.5;;
67685;SDS011;54469;52.090;4.312;2022-12-29T00:35:03;2.6;;;1.5;;
67685;SDS011;54469;52.090;4.312;2022-12-29T00:40:03;2.6;;;1.5;;
67685;SDS011;54469;52.090;4.312;2022-12-29T00:45:03;2.6;;;1.5;;
67685;SDS011;54469;52.090;4.312;2022-12-29T00:50:02;2.6;;;1.5;;
67685;SDS011;54469;52.090;4.312;2022-12-29T00:55:02;2.6;;;1.5;;
67685;SDS011;54469;52.090;4.312;2022-12-29T01:00:03;2.6;;;1.5;;
67685;SDS011;54469;52.090;4.312;2022-12-29T01:05:03;2.6;;;1.5;;
67685;SDS011;54469;52.090;4.312;2022-12-29T01:10:03;2.6;;;1.5;;
67685;SDS011;54469;52.090;4.312;2022-12-29T01:15:03;2.6;;;1.5;;
67685;SDS011;54469;52.090;4.312;2022-12-29T01:20:03;2.6;;;1.5;;
67685;SDS011;54469;52.090;4.312;2022-12-29T01:25:02;2.6;;;1.5;;
67685;SDS011;54469;52.090;4.312;2022-12-29T01:30:03;4.8;;;1;;
67685;SDS011;54469;52.090;4.312;2022-12-29T01:35:02;1.7;;;0.4;;
67685;SDS011;54469;52.090;4.312;2022-12-29T01:40:03;1.7;;;0.4;;
67685;SDS011;54469;52.090;4.312;2022-12-29T01:45:03;1.7;;;0.4;;
67685;SDS011;54469;52.090;4.312;2022-12-29T01:50:04;1.7;;;0.4;;
67685;SDS011;54469;52.090;4.312;2022-12-29T01:55:03;4.8;;;1.7;;
67685;SDS011;54469;52.090;4.312;2022-12-29T02:00:07;4.8;;;1.7;;
67685;SDS011;54469;52.090;4.312;2022-12-29T02:05:04;8.800000000000002;;;1.3;;
67685;SDS011;54469;52.090;4.312;2022-12-29T02:10:02;3;;;1.4;;
67685;SDS011;54469;52.090;4.312;2022-12-29T02:15:02;3;;;1.4;;
67685;SDS011;54469;52.090;4.312;2022-12-29T02:21:14;5.5;;;1.3;;
67685;SDS011;54469;52.090;4.312;2022-12-29T02:25:11;1.5;;;0.6;;
67685;SDS011;54469;52.090;4.312;2022-12-29T02:30:03;4.5;;;1.3;;
67685;SDS011;54469;52.090;4.312;2022-12-29T02:35:05;4.5;;;1.3;;
67685;SDS011;54469;52.090;4.312;2022-12-29T02:40:04;4.5;;;1.3;;
67685;SDS011;54469;52.090;4.312;2022-12-29T02:45:03;4.5;;;1.3;;
67685;SDS011;54469;52.090;4.312;2022-12-29T02:50:03;4.5;;;1.3;;
67685;SDS011;54469;52.090;4.312;2022-12-29T02:55:03;14.5;;;1.7;;
67685;SDS011;54469;52.090;4.312;2022-12-29T03:00:05;12.3;;;1.8;;
67685;SDS011;54469;52.090;4.312;2022-12-29T03:05:05;7.6;;;1.2;;
67685;SDS011;54469;52.090;4.312;2022-12-29T03:10:04;10.5;;;1.3;;
67685;SDS011;54469;52.090;4.312;2022-12-29T03:15:03;6.3;;;1.3;;
67685;SDS011;54469;52.090;4.312;2022-12-29T03:20:04;6.3;;;1.3;;
67685;SDS011;54469;52.090;4.312;2022-12-29T03:25:04;9.800000000000002;;;1.4;;
67685;SDS011;54469;52.090;4.312;2022-12-29T03:30:03;6;;;1.2;;
67685;SDS011;54469;52.090;4.312;2022-12-29T03:35:03;9.6;;;1.7;;
67685;SDS011;54469;52.090;4.312;2022-12-29T03:40:02;9.6;;;1.7;;
67685;SDS011;54469;52.090;4.312;2022-12-29T03:45:03;9.6;;;1.7;;
67685;SDS011;54469;52.090;4.312;2022-12-29T03:50:02;9.6;;;1.7;;
67685;SDS011;54469;52.090;4.312;2022-12-29T03:55:03;9.6;;;1.7;;
67685;SDS011;54469;52.090;4.312;2022-12-29T04:00:03;9.6;;;1.7;;
67685;SDS011;54469;52.090;4.312;2022-12-29T04:05:03;9.6;;;1.7;;
67685;SDS011;54469;52.090;4.312;2022-12-29T04:10:03;12;;;2.2;;
67685;SDS011;54469;52.090;4.312;2022-12-29T04:15:02;6.2;;;1.3;;
67685;SDS011;54469;52.090;4.312;2022-12-29T04:20:02;10.5;;;2;;
67685;SDS011;54469;52.090;4.312;2022-12-29T04:25:02;12.5;;;1.7;;
67685;SDS011;54469;52.090;4.312;2022-12-29T04:30:03;8.699999999999998;;;1.6;;
67685;SDS011;54469;52.090;4.312;2022-12-29T04:35:03;13.3;;;2.8;;
67685;SDS011;54469;52.090;4.312;2022-12-29T04:40:03;7;;;1.5;;
67685;SDS011;54469;52.090;4.312;2022-12-29T04:45:03;11.8;;;1.4;;
67685;SDS011;54469;52.090;4.312;2022-12-29T04:50:02;8.5;;;2;;
67685;SDS011;54469;52.090;4.312;2022-12-29T04:55:02;13.4;;;2.3;;
67685;SDS011;54469;52.090;4.312;2022-12-29T05:00:02;18.5;;;2.8;;
67685;SDS011;54469;52.090;4.312;2022-12-29T05:05:02;11.8;;;2.8;;
67685;SDS011;54469;52.090;4.312;2022-12-29T05:10:03;11.8;;;1.7;;
67685;SDS011;54469;52.090;4.312;2022-12-29T05:15:02;11.8;;;1.7;;
67685;SDS011;54469;52.090;4.312;2022-12-29T05:20:03;9.199999999999998;;;1.5;;
67685;SDS011;54469;52.090;4.312;2022-12-29T05:25:02;9.199999999999998;;;1.5;;
67685;SDS011;54469;52.090;4.312;2022-12-29T05:30:03;9.199999999999998;;;1.5;;
67685;SDS011;54469;52.090;4.312;2022-12-29T05:35:03;9.199999999999998;;;1.5;;
67685;SDS011;54469;52.090;4.312;2022-12-29T05:40:03;12.1;;;1.8;;
67685;SDS011;54469;52.090;4.312;2022-12-29T05:45:03;5.9;;;1.5;;
67685;SDS011;54469;52.090;4.312;2022-12-29T05:50:03;9.199999999999998;;;1.6;;
67685;SDS011;54469;52.090;4.312;2022-12-29T05:55:03;13.3;;;2.6;;
67685;SDS011;54469;52.090;4.312;2022-12-29T06:00:02;11;;;2.5;;
67685;SDS011;54469;52.090;4.312;2022-12-29T06:05:03;11;;;2.5;;
67685;SDS011;54469;52.090;4.312;2022-12-29T06:10:03;11;;;2.5;;
67685;SDS011;54469;52.090;4.312;2022-12-29T06:15:03;15.2;;;2.9;;
67685;SDS011;54469;52.090;4.312;2022-12-29T06:20:03;15.2;;;2.9;;
67685;SDS011;54469;52.090;4.312;2022-12-29T06:25:03;15.2;;;2.9;;
67685;SDS011;54469;52.090;4.312;2022-12-29T06:30:02;15.2;;;2.9;;
67685;SDS011;54469;52.090;4.312;2022-12-29T06:35:02;15.2;;;2.9;;
67685;SDS011;54469;52.090;4.312;2022-12-29T06:40:03;12.5;;;2.4;;
67685;SDS011;54469;52.090;4.312;2022-12-29T06:45:03;10.199999999999998;;;1.9;;
67685;SDS011;54469;52.090;4.312;2022-12-29T06:50:03;20.9;;;3.2;;
67685;SDS011;54469;52.090;4.312;2022-12-29T06:55:02;12.5;;;2.4;;
67685;SDS011;54469;52.090;4.312;2022-12-29T07:00:02;16.2;;;2.5;;
67685;SDS011;54469;52.090;4.312;2022-12-29T07:05:03;10.3;;;1.9;;
67685;SDS011;54469;52.090;4.312;2022-12-29T07:10:03;21.6;;;3.4;;
67685;SDS011;54469;52.090;4.312;2022-12-29T07:15:03;15.9;;;3;;
67685;SDS011;54469;52.090;4.312;2022-12-29T07:20:02;15.9;;;3;;
67685;SDS011;54469;52.090;4.312;2022-12-29T07:25:02;15.9;;;3;;
67685;SDS011;54469;52.090;4.312;2022-12-29T07:30:03;12.1;;;1.6;;
67685;SDS011;54469;52.090;4.312;2022-12-29T07:35:03;15.7;;;2.2;;
67685;SDS011;54469;52.090;4.312;2022-12-29T07:40:03;10.3;;;2.8;;
67685;SDS011;54469;52.090;4.312;2022-12-29T07:45:03;15.8;;;2.6;;
67685;SDS011;54469;52.090;4.312;2022-12-29T07:50:03;12.4;;;2.3;;
67685;SDS011;54469;52.090;4.312;2022-12-29T07:55:03;12.4;;;2.3;;
67685;SDS011;54469;52.090;4.312;2022-12-29T08:00:03;12.4;;;2.3;;
67685;SDS011;54469;52.090;4.312;2022-12-29T08:05:03;15.7;;;2.8;;
67685;SDS011;54469;52.090;4.312;2022-12-29T08:10:03;13.6;;;1.8;;
67685;SDS011;54469;52.090;4.312;2022-12-29T08:15:03;13.6;;;1.8;;
67685;SDS011;54469;52.090;4.312;2022-12-29T08:20:03;15.3;;;3.1;;
67685;SDS011;54469;52.090;4.312;2022-12-29T08:25:02;15.3;;;3.1;;
67685;SDS011;54469;52.090;4.312;2022-12-29T08:30:03;17.399999999999995;;;3.3;;
67685;SDS011;54469;52.090;4.312;2022-12-29T08:35:03;17.399999999999995;;;3.3;;
67685;SDS011;54469;52.090;4.312;2022-12-29T08:40:03;17.399999999999995;;;3.3;;
67685;SDS011;54469;52.090;4.312;2022-12-29T08:45:03;12.6;;;2.2;;
67685;SDS011;54469;52.090;4.312;2022-12-29T08:50:03;12.6;;;2.2;;
67685;SDS011;54469;52.090;4.312;2022-12-29T08:55:02;12.6;;;2.2;;
67685;SDS011;54469;52.090;4.312;2022-12-29T09:00:02;12.6;;;2.2;;
67685;SDS011;54469;52.090;4.312;2022-12-29T09:05:03;12.6;;;2.2;;
67685;SDS011;54469;52.090;4.312;2022-12-29T09:10:03;10.6;;;2.3;;
67685;SDS011;54469;52.090;4.312;2022-12-29T09:15:03;15.4;;;3.2;;
67685;SDS011;54469;52.090;4.312;2022-12-29T09:20:03;14.4;;;2.1;;
67685;SDS011;54469;52.090;4.312;2022-12-29T09:25:02;14.4;;;2.1;;
67685;SDS011;54469;52.090;4.312;2022-12-29T09:30:03;10.7;;;1.7;;
67685;SDS011;54469;52.090;4.312;2022-12-29T09:35:02;19.3;;;2.9;;
67685;SDS011;54469;52.090;4.312;2022-12-29T09:40:02;23.9;;;3.7;;
67685;SDS011;54469;52.090;4.312;2022-12-29T09:45:05;20.100000000000005;;;3.1;;
67685;SDS011;54469;52.090;4.312;2022-12-29T09:50:03;13.2;;;3;;
67685;SDS011;54469;52.090;4.312;2022-12-29T09:55:03;17.2;;;2.5;;
67685;SDS011;54469;52.090;4.312;2022-12-29T10:00:05;17.2;;;2.5;;
67685;SDS011;54469;52.090;4.312;2022-12-29T10:05:03;22.7;;;2.9;;
67685;SDS011;54469;52.090;4.312;2022-12-29T10:10:07;20.3;;;3.3;;
67685;SDS011;54469;52.090;4.312;2022-12-29T10:15:04;22.7;;;3.2;;
67685;SDS011;54469;52.090;4.312;2022-12-29T10:20:10;22.7;;;3.2;;
67685;SDS011;54469;52.090;4.312;2022-12-29T10:25:06;22.7;;;3.2;;
67685;SDS011;54469;52.090;4.312;2022-12-29T10:30:03;16.3;;;2.8;;
67685;SDS011;54469;52.090;4.312;2022-12-29T10:35:03;19.3;;;3.4;;
67685;SDS011;54469;52.090;4.312;2022-12-29T10:40:09;14.3;;;2.2;;
67685;SDS011;54469;52.090;4.312;2022-12-29T10:45:03;14.3;;;2.2;;
67685;SDS011;54469;52.090;4.312;2022-12-29T10:50:02;8.4;;;2;;
67685;SDS011;54469;52.090;4.312;2022-12-29T10:55:03;10.5;;;2.8;;
67685;SDS011;54469;52.090;4.312;2022-12-29T11:00:07;8.199999999999998;;;1.4;;
67685;SDS011;54469;52.090;4.312;2022-12-29T11:05:03;8.199999999999998;;;1.4;;
67685;SDS011;54469;52.090;4.312;2022-12-29T11:10:19;8.199999999999998;;;1.4;;
67685;SDS011;54469;52.090;4.312;2022-12-29T11:15:11;8.199999999999998;;;1.4;;
67685;SDS011;54469;52.090;4.312;2022-12-29T11:20:11;8.199999999999998;;;1.4;;
67685;SDS011;54469;52.090;4.312;2022-12-29T11:25:05;13.5;;;2;;
67685;SDS011;54469;52.090;4.312;2022-12-29T11:30:03;13.5;;;2;;
67685;SDS011;54469;52.090;4.312;2022-12-29T11:35:03;7.2;;;1.6;;
67685;SDS011;54469;52.090;4.312;2022-12-29T11:40:03;7.2;;;1.6;;
67685;SDS011;54469;52.090;4.312;2022-12-29T11:45:03;7.2;;;1.6;;
67685;SDS011;54469;52.090;4.312;2022-12-29T11:50:04;7.2;;;1.6;;
67685;SDS011;54469;52.090;4.312;2022-12-29T11:55:04;7.2;;;1.6;;
67685;SDS011;54469;52.090;4.312;2022-12-29T12:00:03;10.7;;;1.8;;
67685;SDS011;54469;52.090;4.312;2022-12-29T12:05:05;10.7;;;1.8;;
67685;SDS011;54469;52.090;4.312;2022-12-29T12:10:03;8.6;;;1.7;;
67685;SDS011;54469;52.090;4.312;2022-12-29T12:15:02;11.9;;;1.9;;
67685;SDS011;54469;52.090;4.312;2022-12-29T12:20:05;8.1;;;2.5;;
67685;SDS011;54469;52.090;4.312;2022-12-29T12:25:03;10.4;;;1.9;;
67685;SDS011;54469;52.090;4.312;2022-12-29T12:30:04;14.1;;;2.3;;
67685;SDS011;54469;52.090;4.312;2022-12-29T12:35:03;14.1;;;2.3;;
67685;SDS011;54469;52.090;4.312;2022-12-29T12:40:09;11.8;;;1.5;;
67685;SDS011;54469;52.090;4.312;2022-12-29T12:45:08;5.3;;;1.3;;
67685;SDS011;54469;52.090;4.312;2022-12-29T12:50:06;5.3;;;1.3;;
67685;SDS011;54469;52.090;4.312;2022-12-29T12:55:06;11.1;;;1.7;;
67685;SDS011;54469;52.090;4.312;2022-12-29T13:00:04;11.1;;;1.7;;
67685;SDS011;54469;52.090;4.312;2022-12-29T13:05:16;6.8;;;1.3;;
67685;SDS011;54469;52.090;4.312;2022-12-29T13:10:08;6.8;;;1.3;;
67685;SDS011;54469;52.090;4.312;2022-12-29T13:15:06;11.6;;;2.2;;
67685;SDS011;54469;52.090;4.312;2022-12-29T13:20:05;11.6;;;2.2;;
67685;SDS011;54469;52.090;4.312;2022-12-29T13:25:07;11.6;;;2.2;;
67685;SDS011;54469;52.090;4.312;2022-12-29T13:30:03;7.7;;;1.8;;
67685;SDS011;54469;52.090;4.312;2022-12-29T13:35:07;12.8;;;2.3;;
67685;SDS011;54469;52.090;4.312;2022-12-29T13:40:03;15.8;;;2.4;;
67685;SDS011;54469;52.090;4.312;2022-12-29T13:45:03;15.8;;;2.4;;
67685;SDS011;54469;52.090;4.312;2022-12-29T13:50:03;6.7;;;1.6;;
67685;SDS011;54469;52.090;4.312;2022-12-29T13:55:07;6.7;;;1.6;;
67685;SDS011;54469;52.090;4.312;2022-12-29T14:00:04;6.7;;;1.6;;
67685;SDS011;54469;52.090;4.312;2022-12-29T14:05:03;9.300000000000002;;;2;;
67685;SDS011;54469;52.090;4.312;2022-12-29T14:10:03;12.7;;;1.6;;
67685;SDS011;54469;52.090;4.312;2022-12-29T14:15:04;12.7;;;1.6;;
67685;SDS011;54469;52.090;4.312;2022-12-29T14:20:03;12.7;;;1.6;;
67685;SDS011;54469;52.090;4.312;2022-12-29T14:25:02;6.7;;;1.5;;
67685;SDS011;54469;52.090;4.312;2022-12-29T14:30:03;6.7;;;1.5;;
67685;SDS011;54469;52.090;4.312;2022-12-29T14:35:36;9.800000000000002;;;1.9;;
67685;SDS011;54469;52.090;4.312;2022-12-29T14:40:03;9.800000000000002;;;1.9;;
67685;SDS011;54469;52.090;4.312;2022-12-29T14:45:05;9.800000000000002;;;1.9;;
67685;SDS011;54469;52.090;4.312;2022-12-29T14:50:04;9.800000000000002;;;1.9;;
67685;SDS011;54469;52.090;4.312;2022-12-29T14:55:28;9.800000000000002;;;1.9;;
67685;SDS011;54469;52.090;4.312;2022-12-29T15:00:06;7.5;;;1.6;;
67685;SDS011;54469;52.090;4.312;2022-12-29T15:05:03;7.5;;;1.6;;
67685;SDS011;54469;52.090;4.312;2022-12-29T15:10:05;14.3;;;2.8;;
67685;SDS011;54469;52.090;4.312;2022-12-29T15:15:10;9.4;;;1.7;;
67685;SDS011;54469;52.090;4.312;2022-12-29T15:20:14;12.3;;;2.3;;
67685;SDS011;54469;52.090;4.312;2022-12-29T15:25:02;7.7;;;1.3;;
67685;SDS011;54469;52.090;4.312;2022-12-29T15:30:03;19.3;;;4.1;;
67685;SDS011;54469;52.090;4.312;2022-12-29T15:35:13;13;;;2.1;;
67685;SDS011;54469;52.090;4.312;2022-12-29T15:40:02;7.3;;;1.9;;
67685;SDS011;54469;52.090;4.312;2022-12-29T15:45:03;13.1;;;3.1;;
67685;SDS011;54469;52.090;4.312;2022-12-29T15:50:03;13.1;;;3.1;;
67685;SDS011;54469;52.090;4.312;2022-12-29T15:55:03;10.199999999999998;;;1.8;;
67685;SDS011;54469;52.090;4.312;2022-12-29T16:00:03;15;;;2;;
67685;SDS011;54469;52.090;4.312;2022-12-29T16:05:07;15;;;2;;
67685;SDS011;54469;52.090;4.312;2022-12-29T16:10:02;8.699999999999998;;;2;;
67685;SDS011;54469;52.090;4.312;2022-12-29T16:15:03;8.699999999999998;;;2;;
67685;SDS011;54469;52.090;4.312;2022-12-29T16:20:04;8.699999999999998;;;2;;
67685;SDS011;54469;52.090;4.312;2022-12-29T16:25:03;13.3;;;2.1;;
67685;SDS011;54469;52.090;4.312;2022-12-29T16:30:04;6.7;;;1.5;;
67685;SDS011;54469;52.090;4.312;2022-12-29T16:35:09;17.2;;;3.1;;
67685;SDS011;54469;52.090;4.312;2022-12-29T16:40:37;13.2;;;1.7;;
67685;SDS011;54469;52.090;4.312;2022-12-29T16:50:11;9.1;;;1.5;;
67685;SDS011;54469;52.090;4.312;2022-12-29T16:55:03;9.1;;;1.5;;
67685;SDS011;54469;52.090;4.312;2022-12-29T17:00:03;13.9;;;2.3;;
67685;SDS011;54469;52.090;4.312;2022-12-29T17:05:03;8.9;;;2.1;;
67685;SDS011;54469;52.090;4.312;2022-12-29T17:10:03;8.9;;;2.1;;
67685;SDS011;54469;52.090;4.312;2022-12-29T17:15:03;8.9;;;2.1;;
67685;SDS011;54469;52.090;4.312;2022-12-29T17:20:04;8.9;;;2.1;;
67685;SDS011;54469;52.090;4.312;2022-12-29T17:25:03;17.100000000000005;;;2.4;;
67685;SDS011;54469;52.090;4.312;2022-12-29T17:30:03;17.100000000000005;;;2.4;;
67685;SDS011;54469;52.090;4.312;2022-12-29T17:35:03;17.100000000000005;;;2.4;;
67685;SDS011;54469;52.090;4.312;2022-12-29T17:40:04;8.1;;;1.9;;
67685;SDS011;54469;52.090;4.312;2022-12-29T17:45:03;12;;;2.6;;
67685;SDS011;54469;52.090;4.312;2022-12-29T17:50:03;5.7;;;1.8;;
67685;SDS011;54469;52.090;4.312;2022-12-29T17:55:03;19.899999999999995;;;3.3;;
67685;SDS011;54469;52.090;4.312;2022-12-29T18:00:03;15.2;;;2.2;;
67685;SDS011;54469;52.090;4.312;2022-12-29T18:05:04;17.3;;;3.9;;
67685;SDS011;54469;52.090;4.312;2022-12-29T18:10:02;13.4;;;2.6;;
67685;SDS011;54469;52.090;4.312;2022-12-29T18:15:03;16.6;;;3.6;;
67685;SDS011;54469;52.090;4.312;2022-12-29T18:20:03;19.5;;;3.3;;
67685;SDS011;54469;52.090;4.312;2022-12-29T18:25:08;8.699999999999998;;;2.7;;
67685;SDS011;54469;52.090;4.312;2022-12-29T18:30:03;18.399999999999995;;;3.1;;
67685;SDS011;54469;52.090;4.312;2022-12-29T18:35:02;9.699999999999998;;;2.4;;
67685;SDS011;54469;52.090;4.312;2022-12-29T18:40:02;14.2;;;2.4;;
67685;SDS011;54469;52.090;4.312;2022-12-29T18:45:14;11.6;;;2;;
67685;SDS011;54469;52.090;4.312;2022-12-29T18:50:03;11.6;;;2;;
67685;SDS011;54469;52.090;4.312;2022-12-29T18:55:03;14.8;;;2.9;;
67685;SDS011;54469;52.090;4.312;2022-12-29T19:00:03;14.8;;;2.9;;
67685;SDS011;54469;52.090;4.312;2022-12-29T19:05:13;28.6;;;4.3;;
67685;SDS011;54469;52.090;4.312;2022-12-29T19:10:03;10.6;;;2.1;;
67685;SDS011;54469;52.090;4.312;2022-12-29T19:15:02;19.5;;;3.9;;
67685;SDS011;54469;52.090;4.312;2022-12-29T19:20:03;9.699999999999998;;;2.3;;
67685;SDS011;54469;52.090;4.312;2022-12-29T19:25:03;22.7;;;4;;
67685;SDS011;54469;52.090;4.312;2022-12-29T19:30:02;13.1;;;2.8;;
67685;SDS011;54469;52.090;4.312;2022-12-29T19:35:02;13.1;;;2.8;;
67685;SDS011;54469;52.090;4.312;2022-12-29T19:40:03;9.9;;;2.6;;
67685;SDS011;54469;52.090;4.312;2022-12-29T19:45:04;14.4;;;3.4;;
67685;SDS011;54469;52.090;4.312;2022-12-29T19:50:03;14.4;;;3.4;;
67685;SDS011;54469;52.090;4.312;2022-12-29T19:55:02;21.6;;;3.2;;
67685;SDS011;54469;52.090;4.312;2022-12-29T20:00:02;21.6;;;3.2;;
67685;SDS011;54469;52.090;4.312;2022-12-29T20:05:02;17.399999999999995;;;2.9;;
67685;SDS011;54469;52.090;4.312;2022-12-29T20:10:03;15;;;2.2;;
67685;SDS011;54469;52.090;4.312;2022-12-29T20:15:04;15;;;2.2;;
67685;SDS011;54469;52.090;4.312;2022-12-29T20:20:02;10;;;2.4;;
67685;SDS011;54469;52.090;4.312;2022-12-29T20:25:02;10;;;2.4;;
67685;SDS011;54469;52.090;4.312;2022-12-29T20:30:03;10;;;2.4;;
67685;SDS011;54469;52.090;4.312;2022-12-29T20:35:03;18;;;3;;
67685;SDS011;54469;52.090;4.312;2022-12-29T20:40:02;14.2;;;2.8;;
67685;SDS011;54469;52.090;4.312;2022-12-29T20:45:03;14.2;;;2.8;;
67685;SDS011;54469;52.090;4.312;2022-12-29T20:50:02;18;;;3.2;;
67685;SDS011;54469;52.090;4.312;2022-12-29T20:55:03;20;;;2.9;;
67685;SDS011;54469;52.090;4.312;2022-12-29T21:00:03;12.7;;;2.8;;
67685;SDS011;54469;52.090;4.312;2022-12-29T21:05:03;12.7;;;2.8;;
67685;SDS011;54469;52.090;4.312;2022-12-29T21:10:02;12.7;;;2.8;;
67685;SDS011;54469;52.090;4.312;2022-12-29T21:15:02;12.7;;;2.8;;
67685;SDS011;54469;52.090;4.312;2022-12-29T21:20:02;10.9;;;1.8;;
67685;SDS011;54469;52.090;4.312;2022-12-29T21:25:03;10.9;;;1.8;;
67685;SDS011;54469;52.090;4.312;2022-12-29T21:30:03;10.9;;;1.8;;
67685;SDS011;54469;52.090;4.312;2022-12-29T21:35:03;13;;;2.7;;
67685;SDS011;54469;52.090;4.312;2022-12-29T21:40:02;10.5;;;1.8;;
67685;SDS011;54469;52.090;4.312;2022-12-29T21:45:03;10.5;;;1.8;;
67685;SDS011;54469;52.090;4.312;2022-12-29T21:50:03;8;;;1.8;;
67685;SDS011;54469;52.090;4.312;2022-12-29T21:55:03;8;;;1.8;;
67685;SDS011;54469;52.090;4.312;2022-12-29T22:00:03;16.4;;;2.4;;
67685;SDS011;54469;52.090;4.312;2022-12-29T22:05:03;16.4;;;2.4;;
67685;SDS011;54469;52.090;4.312;2022-12-29T22:10:03;18.399999999999995;;;2.3;;
67685;SDS011;54469;52.090;4.312;2022-12-29T22:15:03;13.8;;;2.1;;
67685;SDS011;54469;52.090;4.312;2022-12-29T22:20:03;7.1;;;1.9;;
67685;SDS011;54469;52.090;4.312;2022-12-29T22:25:03;9.800000000000002;;;1.8;;
67685;SDS011;54469;52.090;4.312;2022-12-29T22:30:03;7.2;;;2;;
67685;SDS011;54469;52.090;4.312;2022-12-29T22:35:03;11.4;;;2.3;;
67685;SDS011;54469;52.090;4.312;2022-12-29T22:40:03;8.9;;;1.9;;
67685;SDS011;54469;52.090;4.312;2022-12-29T22:45:03;16.2;;;2.1;;
67685;SDS011;54469;52.090;4.312;2022-12-29T22:50:03;9.6;;;2.3;;
67685;SDS011;54469;52.090;4.312;2022-12-29T22:55:03;9.6;;;2.3;;
67685;SDS011;54469;52.090;4.312;2022-12-29T23:00:03;9.6;;;2.3;;
67685;SDS011;54469;52.090;4.312;2022-12-29T23:05:03;16.1;;;1.9;;
67685;SDS011;54469;52.090;4.312;2022-12-29T23:10:03;12.6;;;2.2;;
67685;SDS011;54469;52.090;4.312;2022-12-29T23:15:06;9.1;;;1.6;;
67685;SDS011;54469;52.090;4.312;2022-12-29T23:20:03;9.1;;;1.6;;
67685;SDS011;54469;52.090;4.312;2022-12-29T23:25:02;9.1;;;1.6;;
67685;SDS011;54469;52.090;4.312;2022-12-29T23:30:07;12.7;;;2;;
67685;SDS011;54469;52.090;4.312;2022-12-29T23:35:02;17.100000000000005;;;2.2;;
67685;SDS011;54469;52.090;4.312;2022-12-29T23:40:03;7;;;1.5;;
67685;SDS011;54469;52.090;4.312;2022-12-29T23:45:03;21;;;2.1;;
67685;SDS011;54469;52.090;4.312;2022-12-29T23:50:03;9.800000000000002;;;1.7;;
67685;SDS011;54469;52.090;4.312;2022-12-29T23:55:02;24.3;;;2.4;;
